Time;durP1;ratioP1;P1;durP2;ratioP2;P2;SDS_P1;SDS_P2;PMS_P1;PMS_P2;Temp;Humidity;BMP_temperature;BMP_pressure;BME280_temperature;BME280_humidity;BME280_pressure;Samples;Min_cycle;Max_cycle;Signal;HPM_P1;HPM_P2
2024/03/29 00:00:50;;;;;;;;;;;8.70;99.90;;;;;;2059836;28;19936;-70
2024/03/29 00:01:51;;;;;;;;;;;8.70;99.90;;;;;;2058815;28;20016;-73
2024/03/29 00:02:51;;;;;;;;;;;8.60;99.90;;;;;;2067295;28;19925;-75
2024/03/29 00:03:55;;;;;;;;;;;8.60;99.90;;;;;;2067407;28;19913;-75
2024/03/29 00:04:55;;;;;;;;;;;8.60;99.90;;;;;;2072339;28;20004;-82
2024/03/29 00:05:56;;;;;;;;;;;8.60;99.90;;;;;;2076548;28;19917;-74
2024/03/29 00:06:56;;;;;;;;;;;8.60;99.90;;;;;;2067641;28;20341;-74
2024/03/29 00:07:56;;;;;;;;;;;8.50;99.90;;;;;;2067986;28;19987;-74
2024/03/29 00:08:57;;;;;;;;;;;8.50;99.90;;;;;;2076509;28;19949;-75
2024/03/29 00:09:57;;;;;;;;;;;8.50;99.90;;;;;;2076610;28;20338;-76
2024/03/29 00:10:58;;;;;;;;;;;8.50;99.90;;;;;;2076228;28;19945;-73
2024/03/29 00:11:58;;;;;;;;;;;8.50;99.90;;;;;;2076762;28;19913;-74
2024/03/29 00:12:59;;;;;;;;;;;8.50;99.90;;;;;;2076145;28;19920;-75
2024/03/29 00:13:59;;;;;;;;;;;8.50;99.90;;;;;;2067759;28;19926;-74
2024/03/29 00:15:00;;;;;;;;;;;8.50;99.90;;;;;;2067507;28;20016;-74
2024/03/29 00:16:00;;;;;;;;;;;8.50;99.90;;;;;;2078178;28;19960;-76
2024/03/29 00:17:04;;;;;;;;;;;8.50;99.90;;;;;;2062559;28;20336;-76
2024/03/29 00:18:04;;;;;;;;;;;8.50;99.90;;;;;;2059960;28;20018;-75
2024/03/29 00:19:05;;;;;;;;;;;8.50;99.90;;;;;;2067602;28;19913;-75
2024/03/29 00:20:05;;;;;;;;;;;8.50;99.90;;;;;;2059488;28;20352;-76
2024/03/29 00:21:06;;;;;;;;;;;8.50;99.90;;;;;;2064219;28;20246;-74
2024/03/29 00:22:06;;;;;;;;;;;8.50;99.90;;;;;;2059606;28;20550;-75
2024/03/29 00:23:07;;;;;;;;;;;8.50;99.90;;;;;;2059631;28;19921;-74
2024/03/29 00:24:07;;;;;;;;;;;8.50;99.90;;;;;;2067505;28;19930;-75
2024/03/29 00:25:08;;;;;;;;;;;8.50;99.90;;;;;;2067464;28;19913;-76
2024/03/29 00:26:09;;;;;;;;;;;8.60;99.90;;;;;;2076502;28;19920;-76
2024/03/29 00:27:09;;;;;;;;;;;8.60;99.90;;;;;;2076268;28;20383;-77
2024/03/29 00:28:10;;;;;;;;;;;8.60;99.90;;;;;;2076279;28;20410;-74
2024/03/29 00:29:10;;;;;;;;;;;8.60;99.90;;;;;;2076778;28;20314;-74
2024/03/29 00:30:11;;;;;;;;;;;8.60;99.90;;;;;;2076270;28;19917;-80
2024/03/29 00:31:11;;;;;;;;;;;8.60;99.90;;;;;;2073468;28;20024;-80
2024/03/29 00:32:12;;;;;;;;;;;8.60;99.90;;;;;;2077110;28;19917;-81
2024/03/29 00:33:13;;;;;;;;;;;8.60;99.90;;;;;;2067884;28;19933;-81
2024/03/29 00:34:13;;;;;;;;;;;8.60;99.90;;;;;;2059700;28;19953;-82
2024/03/29 00:35:14;;;;;;;;;;;8.60;99.90;;;;;;2047643;28;20230;-82
2024/03/29 00:36:14;;;;;;;;;;;8.60;99.90;;;;;;2059835;28;19949;-82
2024/03/29 00:37:15;;;;;;;;;;;8.60;99.90;;;;;;2068134;28;20368;-81
2024/03/29 00:38:15;;;;;;;;;;;8.60;99.90;;;;;;2077009;28;19913;-81
2024/03/29 00:39:16;;;;;;;;;;;8.60;99.90;;;;;;2067951;28;19917;-80
2024/03/29 00:40:16;;;;;;;;;;;8.60;99.90;;;;;;2059681;28;19928;-76
2024/03/29 00:41:17;;;;;;;;;;;8.60;99.90;;;;;;2066963;28;19999;-75
2024/03/29 00:42:19;;;;;;;;;;;8.60;99.90;;;;;;2076424;28;19913;-75
2024/03/29 00:43:20;;;;;;;;;;;8.60;99.90;;;;;;2067436;28;19939;-74
2024/03/29 00:44:20;;;;;;;;;;;8.50;99.90;;;;;;2067288;28;20012;-74
2024/03/29 00:45:20;;;;;;;;;;;8.50;99.90;;;;;;2076285;28;19921;-75
2024/03/29 00:46:21;;;;;;;;;;;8.50;99.90;;;;;;2067458;28;20023;-74
2024/03/29 00:47:21;;;;;;;;;;;8.50;99.90;;;;;;2067764;28;19940;-75
2024/03/29 00:48:22;;;;;;;;;;;8.50;99.90;;;;;;2076317;28;19952;-74
2024/03/29 00:49:22;;;;;;;;;;;8.50;99.90;;;;;;2076340;28;20370;-74
2024/03/29 00:50:23;;;;;;;;;;;8.40;99.90;;;;;;2067406;28;20004;-74
2024/03/29 00:51:23;;;;;;;;;;;8.40;99.90;;;;;;2067490;28;19917;-74
2024/03/29 00:52:24;;;;;;;;;;;8.40;99.90;;;;;;2076428;28;19913;-75
2024/03/29 00:53:24;;;;;;;;;;;8.30;99.90;;;;;;2076080;28;19913;-73
2024/03/29 00:54:25;;;;;;;;;;;8.30;99.90;;;;;;2067900;28;19914;-74
2024/03/29 00:55:25;;;;;;;;;;;8.20;99.90;;;;;;2067365;28;19920;-73
2024/03/29 00:56:26;;;;;;;;;;;8.10;99.90;;;;;;2067456;28;20288;-74
2024/03/29 00:57:26;;;;;;;;;;;8.10;99.90;;;;;;2067605;28;19936;-74
2024/03/29 00:58:27;;;;;;;;;;;8.00;99.90;;;;;;2067585;28;20371;-74
2024/03/29 00:59:27;;;;;;;;;;;8.00;99.90;;;;;;2067548;28;19917;-73
2024/03/29 01:00:28;;;;;;;;;;;7.90;99.90;;;;;;2075731;28;20295;-73
2024/03/29 01:01:28;;;;;;;;;;;7.90;99.90;;;;;;2067491;28;19913;-73
2024/03/29 01:02:29;;;;;;;;;;;7.80;99.90;;;;;;2071253;28;19920;-73
2024/03/29 01:03:31;;;;;;;;;;;7.80;99.90;;;;;;2076490;28;19920;-76
2024/03/29 01:04:31;;;;;;;;;;;7.80;99.90;;;;;;2076300;28;20505;-75
2024/03/29 01:05:32;;;;;;;;;;;7.80;99.90;;;;;;2077209;28;20291;-74
2024/03/29 01:06:32;;;;;;;;;;;7.70;99.90;;;;;;2076350;28;20295;-74
2024/03/29 01:07:33;;;;;;;;;;;7.80;99.90;;;;;;2076224;28;20019;-74
2024/03/29 01:08:33;;;;;;;;;;;7.70;99.90;;;;;;2066989;28;19956;-76
2024/03/29 01:09:34;;;;;;;;;;;7.60;99.90;;;;;;2067165;28;20118;-74
2024/03/29 01:10:34;;;;;;;;;;;7.60;99.90;;;;;;2076044;28;20508;-74
2024/03/29 01:11:35;;;;;;;;;;;7.60;99.90;;;;;;2075722;28;20233;-74
2024/03/29 01:12:35;;;;;;;;;;;7.50;99.90;;;;;;2075929;28;21184;-74
2024/03/29 01:13:36;;;;;;;;;;;7.50;99.90;;;;;;2078446;28;19972;-75
2024/03/29 01:14:37;;;;;;;;;;;7.50;99.90;;;;;;2076057;28;20054;-74
2024/03/29 01:15:37;;;;;;;;;;;7.60;99.90;;;;;;2076047;28;20355;-74
2024/03/29 01:16:38;;;;;;;;;;;7.50;99.90;;;;;;2067142;28;20451;-74
2024/03/29 01:17:38;;;;;;;;;;;7.60;99.90;;;;;;2067393;28;20009;-76
2024/03/29 01:18:39;;;;;;;;;;;7.50;99.90;;;;;;2075687;28;19964;-75
2024/03/29 01:19:39;;;;;;;;;;;7.40;99.90;;;;;;2076159;28;20359;-75
2024/03/29 01:20:40;;;;;;;;;;;7.40;99.90;;;;;;2067208;28;20351;-75
2024/03/29 01:21:40;;;;;;;;;;;7.40;99.90;;;;;;2071621;28;20107;-74
2024/03/29 01:22:41;;;;;;;;;;;7.40;99.90;;;;;;2066878;28;19976;-74
2024/03/29 01:23:41;;;;;;;;;;;7.30;99.90;;;;;;2067094;28;20434;-74
2024/03/29 01:24:42;;;;;;;;;;;7.30;99.90;;;;;;2075390;28;19971;-74
2024/03/29 01:25:42;;;;;;;;;;;7.30;99.90;;;;;;2075162;28;19940;-75
2024/03/29 01:26:42;;;;;;;;;;;7.30;99.90;;;;;;2075428;28;19921;-75
2024/03/29 01:27:43;;;;;;;;;;;7.40;99.90;;;;;;2066670;28;20392;-75
2024/03/29 01:28:44;;;;;;;;;;;7.30;99.90;;;;;;2066880;28;19924;-75
2024/03/29 01:29:44;;;;;;;;;;;7.30;99.90;;;;;;2071361;28;19913;-75
2024/03/29 01:30:51;;;;;;;;;;;7.30;99.90;;;;;;2066256;28;19968;-75
2024/03/29 01:31:51;;;;;;;;;;;7.20;99.90;;;;;;2056457;28;19918;-75
2024/03/29 01:32:52;;;;;;;;;;;7.20;99.90;;;;;;2066930;28;19917;-75
2024/03/29 01:33:55;;;;;;;;;;;7.20;99.90;;;;;;2066847;28;20470;-75
2024/03/29 01:34:56;;;;;;;;;;;7.10;99.90;;;;;;2066832;28;19914;-75
2024/03/29 01:35:56;;;;;;;;;;;7.10;99.90;;;;;;2059135;28;19925;-74
2024/03/29 01:36:57;;;;;;;;;;;7.10;99.90;;;;;;2066847;28;19968;-74
2024/03/29 01:37:57;;;;;;;;;;;7.10;99.90;;;;;;2071354;28;20307;-76
2024/03/29 01:38:58;;;;;;;;;;;7.10;99.90;;;;;;2066558;28;19961;-73
2024/03/29 01:39:59;;;;;;;;;;;7.10;99.90;;;;;;2067780;28;20341;-75
2024/03/29 01:40:59;;;;;;;;;;;7.10;99.90;;;;;;2061218;28;19913;-74
2024/03/29 01:42:00;;;;;;;;;;;7.00;99.90;;;;;;2066789;28;19953;-76
2024/03/29 01:43:01;;;;;;;;;;;7.00;99.90;;;;;;2075587;28;20213;-75
2024/03/29 01:44:01;;;;;;;;;;;7.00;99.90;;;;;;2075534;28;19925;-74
2024/03/29 01:45:02;;;;;;;;;;;7.00;99.90;;;;;;2075355;28;19980;-74
2024/03/29 01:46:02;;;;;;;;;;;7.00;99.90;;;;;;2075722;28;19955;-75
2024/03/29 01:47:03;;;;;;;;;;;7.00;99.90;;;;;;2075553;28;19917;-74
2024/03/29 01:48:04;;;;;;;;;;;7.00;99.90;;;;;;2075518;28;20032;-75
2024/03/29 01:49:05;;;;;;;;;;;7.00;99.90;;;;;;2075375;28;19987;-75
2024/03/29 01:50:05;;;;;;;;;;;7.00;99.90;;;;;;2075616;28;20448;-75
2024/03/29 01:51:06;;;;;;;;;;;6.90;99.90;;;;;;2066689;28;19967;-75
2024/03/29 01:52:07;;;;;;;;;;;6.90;99.90;;;;;;2066379;28;19925;-75
2024/03/29 01:53:08;;;;;;;;;;;7.00;99.90;;;;;;2075695;28;19924;-75
2024/03/29 01:54:12;;;;;;;;;;;7.00;99.90;;;;;;2075142;28;20399;-74
2024/03/29 01:55:12;;;;;;;;;;;7.00;99.90;;;;;;2075233;28;19924;-75
2024/03/29 01:56:13;;;;;;;;;;;7.00;99.90;;;;;;2066636;28;19913;-74
2024/03/29 01:57:14;;;;;;;;;;;7.00;99.90;;;;;;2066820;28;19917;-74
2024/03/29 01:58:15;;;;;;;;;;;7.00;99.90;;;;;;2066515;28;19913;-74
2024/03/29 01:59:16;;;;;;;;;;;7.00;99.90;;;;;;2058477;28;19980;-74
2024/03/29 02:00:17;;;;;;;;;;;7.00;99.90;;;;;;2058971;28;20328;-74
2024/03/29 02:01:18;;;;;;;;;;;7.00;99.90;;;;;;2059251;28;19922;-75
2024/03/29 02:02:19;;;;;;;;;;;7.00;99.90;;;;;;2058497;28;19961;-75
2024/03/29 02:03:22;;;;;;;;;;;7.10;99.90;;;;;;2066545;28;19918;-74
2024/03/29 02:04:23;;;;;;;;;;;7.00;99.90;;;;;;2075580;28;19961;-74
2024/03/29 02:05:24;;;;;;;;;;;7.10;99.90;;;;;;2075394;28;19939;-74
2024/03/29 02:06:25;;;;;;;;;;;7.00;99.90;;;;;;2075588;28;20328;-74
2024/03/29 02:07:25;;;;;;;;;;;7.00;99.90;;;;;;2075255;28;19913;-74
2024/03/29 02:08:26;;;;;;;;;;;7.00;99.90;;;;;;2075745;28;20426;-74
2024/03/29 02:09:26;;;;;;;;;;;7.00;99.90;;;;;;2068510;28;20215;-74
2024/03/29 02:10:27;;;;;;;;;;;6.90;99.90;;;;;;2067143;28;19924;-75
2024/03/29 02:11:27;;;;;;;;;;;7.00;99.90;;;;;;2074919;28;19923;-74
2024/03/29 02:12:28;;;;;;;;;;;6.90;99.90;;;;;;2074459;28;19917;-74
2024/03/29 02:13:28;;;;;;;;;;;6.90;99.90;;;;;;2075230;28;19913;-73
2024/03/29 02:14:29;;;;;;;;;;;6.90;99.90;;;;;;2066279;28;19921;-76
2024/03/29 02:15:30;;;;;;;;;;;6.90;99.90;;;;;;2066360;28;20084;-73
2024/03/29 02:16:30;;;;;;;;;;;6.90;99.90;;;;;;2062306;28;19913;-74
2024/03/29 02:17:31;;;;;;;;;;;6.90;99.90;;;;;;2066682;28;20012;-74
2024/03/29 02:18:32;;;;;;;;;;;6.90;99.90;;;;;;2066894;28;19917;-75
2024/03/29 02:19:32;;;;;;;;;;;6.80;99.90;;;;;;2066259;28;19925;-76
2024/03/29 02:20:33;;;;;;;;;;;6.90;99.90;;;;;;2066590;28;20375;-74
2024/03/29 02:21:36;;;;;;;;;;;6.90;99.90;;;;;;2066190;28;19936;-74
2024/03/29 02:22:40;;;;;;;;;;;6.90;99.90;;;;;;2066566;28;19979;-74
2024/03/29 02:23:43;;;;;;;;;;;6.80;99.90;;;;;;2075200;28;19918;-74
2024/03/29 02:24:44;;;;;;;;;;;6.90;99.90;;;;;;2066224;28;20415;-74
2024/03/29 02:25:44;;;;;;;;;;;6.90;99.90;;;;;;2065170;28;20004;-74
2024/03/29 02:26:46;;;;;;;;;;;7.00;99.90;;;;;;2016034;28;1682736;-74
2024/03/29 02:27:47;;;;;;;;;;;7.00;99.90;;;;;;2075546;28;19940;-74
2024/03/29 02:28:48;;;;;;;;;;;7.00;99.90;;;;;;2075740;28;20347;-74
2024/03/29 02:29:57;;;;;;;;;;;7.00;99.90;;;;;;2075378;28;19909;-74
2024/03/29 02:30:58;;;;;;;;;;;7.00;99.90;;;;;;2064899;28;19924;-73
2024/03/29 02:31:58;;;;;;;;;;;7.00;99.90;;;;;;2066481;28;20327;-74
2024/03/29 02:32:59;;;;;;;;;;;7.00;99.90;;;;;;2066542;28;19921;-74
2024/03/29 02:34:00;;;;;;;;;;;7.00;99.90;;;;;;2066787;28;20318;-75
2024/03/29 02:35:00;;;;;;;;;;;7.00;99.90;;;;;;2075175;28;19925;-75
2024/03/29 02:36:00;;;;;;;;;;;7.00;99.90;;;;;;2075578;28;19917;-75
2024/03/29 02:37:01;;;;;;;;;;;7.00;99.90;;;;;;2075818;28;19923;-74
2024/03/29 02:38:02;;;;;;;;;;;7.00;99.90;;;;;;2066735;28;20368;-74
2024/03/29 02:39:02;;;;;;;;;;;7.00;99.90;;;;;;2066760;28;19925;-74
2024/03/29 02:40:03;;;;;;;;;;;7.00;99.90;;;;;;2075608;28;20484;-74
2024/03/29 02:41:04;;;;;;;;;;;7.00;99.90;;;;;;2075754;28;19917;-74
2024/03/29 02:42:05;;;;;;;;;;;7.10;99.90;;;;;;2066808;28;19917;-75
2024/03/29 02:43:06;;;;;;;;;;;7.10;99.90;;;;;;2066831;28;19914;-75
2024/03/29 02:44:06;;;;;;;;;;;7.10;99.90;;;;;;2077725;28;19913;-75
2024/03/29 02:45:07;;;;;;;;;;;7.00;99.90;;;;;;2075277;28;20537;-74
2024/03/29 02:46:08;;;;;;;;;;;7.00;99.90;;;;;;2075578;28;19972;-75
2024/03/29 02:47:08;;;;;;;;;;;7.00;99.90;;;;;;2075742;28;19913;-74
2024/03/29 02:48:09;;;;;;;;;;;7.00;99.90;;;;;;2075637;28;19921;-74
2024/03/29 02:49:09;;;;;;;;;;;7.00;99.90;;;;;;2075643;28;19927;-74
2024/03/29 02:50:10;;;;;;;;;;;7.00;99.90;;;;;;2075643;28;19944;-74
2024/03/29 02:51:11;;;;;;;;;;;7.00;99.90;;;;;;2079703;28;19959;-74
2024/03/29 02:52:11;;;;;;;;;;;6.90;99.90;;;;;;2075631;28;20363;-73
2024/03/29 02:53:12;;;;;;;;;;;6.90;99.90;;;;;;2079679;28;19921;-73
2024/03/29 02:54:12;;;;;;;;;;;6.90;99.90;;;;;;2063001;28;20036;-73
2024/03/29 02:55:13;;;;;;;;;;;6.90;99.90;;;;;;2066454;28;19944;-74
2024/03/29 02:56:18;;;;;;;;;;;6.90;99.90;;;;;;2066780;28;19917;-74
2024/03/29 02:57:19;;;;;;;;;;;6.90;99.90;;;;;;2066723;28;19917;-74
2024/03/29 02:58:19;;;;;;;;;;;6.80;99.90;;;;;;2075752;28;19988;-73
2024/03/29 02:59:20;;;;;;;;;;;6.80;99.90;;;;;;2066771;28;19913;-74
2024/03/29 03:00:20;;;;;;;;;;;6.80;99.90;;;;;;2058450;28;20376;-74
2024/03/29 03:01:20;;;;;;;;;;;6.80;99.90;;;;;;2067074;28;19953;-74
2024/03/29 03:02:21;;;;;;;;;;;6.80;99.90;;;;;;2076046;28;19913;-75
2024/03/29 03:03:24;;;;;;;;;;;6.80;99.90;;;;;;2075564;28;19914;-75
2024/03/29 03:04:24;;;;;;;;;;;6.80;99.90;;;;;;2066753;28;20430;-74
2024/03/29 03:05:25;;;;;;;;;;;6.70;99.90;;;;;;2066976;28;19913;-74
2024/03/29 03:06:25;;;;;;;;;;;6.80;99.90;;;;;;2078456;28;20366;-74
2024/03/29 03:11:24;;;;;;;;;;;6.70;99.90;;;;;;2072657;28;20003;-74
2024/03/29 03:12:24;;;;;;;;;;;6.70;99.90;;;;;;2066897;28;19957;-74
2024/03/29 03:13:28;;;;;;;;;;;6.70;99.90;;;;;;2066653;28;19913;-74
2024/03/29 03:14:28;;;;;;;;;;;6.60;99.90;;;;;;2075683;28;19917;-75
2024/03/29 03:15:29;;;;;;;;;;;6.70;99.90;;;;;;2077390;28;20276;-74
2024/03/29 03:16:29;;;;;;;;;;;6.70;99.90;;;;;;2077531;28;20081;-74
2024/03/29 03:17:31;;;;;;;;;;;6.70;99.90;;;;;;2075779;28;19917;-74
2024/03/29 03:18:31;;;;;;;;;;;6.70;99.90;;;;;;2075084;28;19913;-74
2024/03/29 03:19:32;;;;;;;;;;;6.70;99.90;;;;;;2075578;28;20295;-75
2024/03/29 03:20:33;;;;;;;;;;;6.70;99.90;;;;;;2066327;28;19953;-74
2024/03/29 03:21:34;;;;;;;;;;;6.70;99.90;;;;;;2066589;28;20308;-75
2024/03/29 03:22:35;;;;;;;;;;;6.70;99.90;;;;;;2075643;28;19914;-75
2024/03/29 03:23:36;;;;;;;;;;;6.70;99.90;;;;;;2066576;28;20005;-74
2024/03/29 03:24:36;;;;;;;;;;;6.70;99.90;;;;;;2058770;28;20292;-75
2024/03/29 03:25:37;;;;;;;;;;;6.70;99.90;;;;;;2066434;28;20275;-75
2024/03/29 03:26:38;;;;;;;;;;;6.70;99.90;;;;;;2066826;28;19921;-75
2024/03/29 03:27:38;;;;;;;;;;;6.70;99.90;;;;;;2075396;28;19917;-74
2024/03/29 03:28:39;;;;;;;;;;;6.70;99.90;;;;;;2075107;28;19917;-74
2024/03/29 03:29:39;;;;;;;;;;;6.70;99.90;;;;;;2058896;28;20998;-75
2024/03/29 03:30:40;;;;;;;;;;;6.80;99.90;;;;;;2058006;28;19921;-74
2024/03/29 03:31:40;;;;;;;;;;;6.80;99.90;;;;;;2072379;28;20395;-75
2024/03/29 03:32:41;;;;;;;;;;;6.80;99.90;;;;;;2075442;28;20115;-74
2024/03/29 03:33:41;;;;;;;;;;;6.80;99.90;;;;;;2074786;28;19924;-75
2024/03/29 03:34:42;;;;;;;;;;;6.70;99.90;;;;;;2077350;28;19976;-75
2024/03/29 03:35:43;;;;;;;;;;;6.70;99.90;;;;;;2076279;28;19924;-75
2024/03/29 03:36:43;;;;;;;;;;;6.80;99.90;;;;;;2074982;28;19917;-74
2024/03/29 03:37:44;;;;;;;;;;;6.80;99.90;;;;;;2076758;28;19924;-75
2024/03/29 03:38:44;;;;;;;;;;;6.80;99.90;;;;;;2076998;28;20335;-74
2024/03/29 03:39:44;;;;;;;;;;;6.80;99.90;;;;;;2076635;28;19913;-73
2024/03/29 03:40:45;;;;;;;;;;;6.80;99.90;;;;;;2077075;28;20354;-73
2024/03/29 03:41:46;;;;;;;;;;;6.80;99.90;;;;;;2076767;28;19921;-73
2024/03/29 03:42:47;;;;;;;;;;;6.80;99.90;;;;;;2077070;28;20391;-74
2024/03/29 03:43:47;;;;;;;;;;;6.80;99.90;;;;;;2076702;28;20010;-74
2024/03/29 03:44:48;;;;;;;;;;;6.70;99.90;;;;;;2076930;28;20371;-74
2024/03/29 03:45:48;;;;;;;;;;;6.70;99.90;;;;;;2076702;28;19984;-74
2024/03/29 03:46:49;;;;;;;;;;;6.70;99.90;;;;;;2076788;28;19948;-74
2024/03/29 03:47:49;;;;;;;;;;;6.70;99.90;;;;;;2071474;28;19924;-74
2024/03/29 03:48:50;;;;;;;;;;;6.70;99.90;;;;;;2068481;28;19949;-73
2024/03/29 03:49:50;;;;;;;;;;;6.70;99.90;;;;;;2076836;28;20319;-75
2024/03/29 03:50:51;;;;;;;;;;;6.70;99.90;;;;;;2076904;28;19948;-74
2024/03/29 03:51:52;;;;;;;;;;;6.70;99.90;;;;;;2076837;28;19913;-73
2024/03/29 03:52:52;;;;;;;;;;;6.70;99.90;;;;;;2067794;28;19920;-73
2024/03/29 03:53:52;;;;;;;;;;;6.80;99.90;;;;;;2059691;28;19917;-74
2024/03/29 03:54:53;;;;;;;;;;;6.70;99.90;;;;;;2060065;28;19995;-73
2024/03/29 03:55:53;;;;;;;;;;;6.70;99.90;;;;;;2067449;28;20427;-74
2024/03/29 03:56:54;;;;;;;;;;;6.80;99.90;;;;;;2067890;28;19957;-74
2024/03/29 03:57:54;;;;;;;;;;;6.80;99.90;;;;;;2067733;28;19964;-74
2024/03/29 03:58:55;;;;;;;;;;;6.80;99.90;;;;;;2067740;28;19940;-73
2024/03/29 03:59:55;;;;;;;;;;;6.80;99.90;;;;;;2067792;28;19918;-73
2024/03/29 04:00:56;;;;;;;;;;;6.80;99.90;;;;;;2076649;28;19913;-74
2024/03/29 04:01:56;;;;;;;;;;;6.80;99.90;;;;;;2070113;28;19914;-74
2024/03/29 04:02:57;;;;;;;;;;;6.80;99.90;;;;;;2068288;28;20036;-74
2024/03/29 04:03:57;;;;;;;;;;;6.80;99.90;;;;;;2067984;28;19925;-74
2024/03/29 04:04:58;;;;;;;;;;;6.80;99.90;;;;;;2067605;28;19940;-74
2024/03/29 04:06:02;;;;;;;;;;;6.80;99.90;;;;;;2072110;28;20312;-73
2024/03/29 04:07:03;;;;;;;;;;;6.80;99.90;;;;;;2064770;28;20246;-73
2024/03/29 04:08:04;;;;;;;;;;;6.80;99.90;;;;;;2076597;28;20327;-73
2024/03/29 04:09:04;;;;;;;;;;;6.80;99.90;;;;;;2076623;28;19917;-73
2024/03/29 04:10:05;;;;;;;;;;;6.80;99.90;;;;;;2076640;28;20379;-74
2024/03/29 04:11:06;;;;;;;;;;;6.80;99.90;;;;;;2076670;28;19913;-73
2024/03/29 04:12:06;;;;;;;;;;;6.80;99.90;;;;;;2067629;28;20372;-74
2024/03/29 04:13:07;;;;;;;;;;;6.80;99.90;;;;;;2072100;28;19913;-73
2024/03/29 04:14:07;;;;;;;;;;;6.80;99.90;;;;;;2067283;28;20363;-74
2024/03/29 04:15:08;;;;;;;;;;;6.80;99.90;;;;;;2076182;28;19913;-74
2024/03/29 04:16:08;;;;;;;;;;;6.80;99.90;;;;;;2076663;28;19917;-73
2024/03/29 04:17:09;;;;;;;;;;;6.80;99.90;;;;;;2076646;28;19973;-74
2024/03/29 04:18:09;;;;;;;;;;;6.70;99.90;;;;;;2076635;28;19921;-75
2024/03/29 04:19:10;;;;;;;;;;;6.80;99.90;;;;;;2076552;28;19945;-75
2024/03/29 04:20:10;;;;;;;;;;;6.80;99.90;;;;;;2076763;28;20399;-75
2024/03/29 04:21:11;;;;;;;;;;;6.80;99.90;;;;;;2076351;28;19957;-74
2024/03/29 04:22:11;;;;;;;;;;;6.80;99.90;;;;;;2076419;28;19920;-74
2024/03/29 04:23:12;;;;;;;;;;;6.80;99.90;;;;;;2067534;28;20090;-74
2024/03/29 04:24:12;;;;;;;;;;;6.90;99.90;;;;;;2067502;28;20430;-74
2024/03/29 04:25:14;;;;;;;;;;;6.90;99.90;;;;;;2076629;28;19924;-75
2024/03/29 04:26:15;;;;;;;;;;;6.90;99.90;;;;;;2076399;28;19917;-74
2024/03/29 04:27:15;;;;;;;;;;;6.90;99.90;;;;;;2076428;28;19970;-74
2024/03/29 04:28:16;;;;;;;;;;;6.90;99.90;;;;;;2067436;28;19924;-74
2024/03/29 04:29:16;;;;;;;;;;;6.90;99.90;;;;;;2059830;28;20028;-73
2024/03/29 04:30:17;;;;;;;;;;;7.00;99.90;;;;;;2067603;28;20314;-74
2024/03/29 04:31:17;;;;;;;;;;;7.00;99.90;;;;;;2074714;28;20000;-75
2024/03/29 04:32:18;;;;;;;;;;;7.00;99.90;;;;;;2080781;28;19967;-75
2024/03/29 04:33:18;;;;;;;;;;;7.00;99.90;;;;;;2075975;28;19927;-74
2024/03/29 04:34:18;;;;;;;;;;;7.00;99.90;;;;;;2076664;28;20000;-74
2024/03/29 04:35:19;;;;;;;;;;;7.00;99.90;;;;;;2076219;28;19917;-74
2024/03/29 04:36:19;;;;;;;;;;;7.10;99.90;;;;;;2076463;28;19917;-75
2024/03/29 04:37:20;;;;;;;;;;;7.10;99.90;;;;;;2077170;28;19913;-75
2024/03/29 04:38:21;;;;;;;;;;;7.10;99.90;;;;;;2077029;28;19919;-74
2024/03/29 04:39:22;;;;;;;;;;;7.10;99.90;;;;;;2077049;28;19913;-75
2024/03/29 04:40:22;;;;;;;;;;;7.10;99.90;;;;;;2076923;28;19974;-75
2024/03/29 04:41:23;;;;;;;;;;;7.10;99.90;;;;;;2068084;28;19925;-74
2024/03/29 04:42:23;;;;;;;;;;;7.10;99.90;;;;;;2067666;28;20495;-75
2024/03/29 04:43:25;;;;;;;;;;;7.10;99.90;;;;;;2076533;28;20379;-75
2024/03/29 04:44:27;;;;;;;;;;;7.10;99.90;;;;;;2076309;28;19923;-75
2024/03/29 04:45:27;;;;;;;;;;;7.10;99.90;;;;;;2076417;28;20201;-74
2024/03/29 04:46:29;;;;;;;;;;;7.10;99.90;;;;;;2076454;28;19972;-75
2024/03/29 04:47:29;;;;;;;;;;;7.10;99.90;;;;;;2076439;28;19960;-74
2024/03/29 04:48:30;;;;;;;;;;;7.00;99.90;;;;;;2075788;28;19916;-74
2024/03/29 04:49:36;;;;;;;;;;;7.00;99.90;;;;;;2075240;28;19921;-74
2024/03/29 04:50:37;;;;;;;;;;;7.00;99.90;;;;;;2067821;28;20308;-74
2024/03/29 04:51:37;;;;;;;;;;;7.00;99.90;;;;;;2067870;28;19949;-74
2024/03/29 04:52:38;;;;;;;;;;;7.00;99.90;;;;;;2062860;28;19922;-74
2024/03/29 04:53:38;;;;;;;;;;;7.10;99.90;;;;;;2061189;28;20414;-74
2024/03/29 04:54:39;;;;;;;;;;;7.10;99.90;;;;;;2067605;28;19968;-73
2024/03/29 04:55:39;;;;;;;;;;;7.00;99.90;;;;;;2067341;28;19967;-74
2024/03/29 04:56:40;;;;;;;;;;;7.00;99.90;;;;;;2076222;28;19920;-73
2024/03/29 04:57:41;;;;;;;;;;;7.00;99.90;;;;;;2058933;28;20349;-73
2024/03/29 04:58:42;;;;;;;;;;;7.00;99.90;;;;;;2061784;28;20336;-72
2024/03/29 04:59:42;;;;;;;;;;;7.00;99.90;;;;;;2076104;28;19913;-73
2024/03/29 05:00:43;;;;;;;;;;;7.10;99.90;;;;;;2067574;28;19925;-72
2024/03/29 05:01:44;;;;;;;;;;;7.10;99.90;;;;;;2067322;28;20011;-73
2024/03/29 05:02:44;;;;;;;;;;;7.10;99.90;;;;;;2076046;28;19917;-73
2024/03/29 05:03:45;;;;;;;;;;;7.10;99.90;;;;;;2076333;28;19913;-74
2024/03/29 05:04:45;;;;;;;;;;;7.10;99.90;;;;;;2076247;28;19913;-74
2024/03/29 05:05:46;;;;;;;;;;;7.10;99.90;;;;;;2076074;28;20455;-75
2024/03/29 05:06:46;;;;;;;;;;;7.20;99.90;;;;;;2075938;28;19944;-76
2024/03/29 05:07:47;;;;;;;;;;;7.20;99.90;;;;;;2067465;28;19914;-75
2024/03/29 05:08:47;;;;;;;;;;;7.20;99.90;;;;;;2066236;28;19914;-76
2024/03/29 05:09:48;;;;;;;;;;;7.20;99.90;;;;;;2067597;28;19923;-75
2024/03/29 05:10:49;;;;;;;;;;;7.30;99.90;;;;;;2067295;28;19939;-75
2024/03/29 05:11:50;;;;;;;;;;;7.40;99.90;;;;;;2075232;28;19917;-75
2024/03/29 05:12:51;;;;;;;;;;;7.40;99.90;;;;;;2075618;28;20307;-75
2024/03/29 05:13:52;;;;;;;;;;;7.40;99.90;;;;;;2076133;28;19913;-74
2024/03/29 05:14:52;;;;;;;;;;;7.50;99.90;;;;;;2076598;28;20146;-75
2024/03/29 05:15:53;;;;;;;;;;;7.50;99.90;;;;;;2076060;28;19917;-74
2024/03/29 05:16:53;;;;;;;;;;;7.50;99.90;;;;;;2080296;28;19927;-73
2024/03/29 05:17:54;;;;;;;;;;;7.60;99.90;;;;;;2076549;28;19984;-75
2024/03/29 05:18:54;;;;;;;;;;;7.60;99.90;;;;;;2075777;28;20016;-73
2024/03/29 05:19:55;;;;;;;;;;;7.70;99.90;;;;;;2067030;28;19913;-74
2024/03/29 05:20:55;;;;;;;;;;;7.70;99.90;;;;;;2059511;28;19913;-74
2024/03/29 05:21:56;;;;;;;;;;;7.80;99.90;;;;;;2067272;28;20219;-74
2024/03/29 05:22:57;;;;;;;;;;;7.80;99.90;;;;;;2058910;28;20355;-75
2024/03/29 05:23:58;;;;;;;;;;;7.90;99.90;;;;;;2067770;28;20327;-73
2024/03/29 05:24:58;;;;;;;;;;;7.90;99.90;;;;;;2076282;28;19924;-74
2024/03/29 05:25:59;;;;;;;;;;;7.90;99.90;;;;;;2075917;28;19917;-74
2024/03/29 05:26:59;;;;;;;;;;;8.00;99.90;;;;;;2076400;28;19932;-74
2024/03/29 05:28:00;;;;;;;;;;;8.00;99.90;;;;;;2067038;28;19913;-74
2024/03/29 05:29:03;;;;;;;;;;;8.00;99.90;;;;;;2059157;28;19921;-75
2024/03/29 05:30:04;;;;;;;;;;;8.00;99.90;;;;;;2067239;28;20396;-75
2024/03/29 05:31:11;;;;;;;;;;;8.00;99.90;;;;;;2064996;28;19969;-75
2024/03/29 05:32:12;;;;;;;;;;;8.00;99.90;;;;;;2059968;28;19925;-75
2024/03/29 05:33:12;;;;;;;;;;;8.00;99.90;;;;;;2067184;28;19921;-76
2024/03/29 05:34:14;;;;;;;;;;;8.00;99.90;;;;;;2066951;28;20422;-75
2024/03/29 05:35:15;;;;;;;;;;;8.00;99.90;;;;;;2062981;28;20202;-76
2024/03/29 05:36:16;;;;;;;;;;;8.00;99.90;;;;;;2059110;28;19910;-75
2024/03/29 05:37:18;;;;;;;;;;;8.10;99.90;;;;;;2074328;28;19913;-75
2024/03/29 05:38:18;;;;;;;;;;;8.10;99.90;;;;;;2075686;28;20012;-75
2024/03/29 05:39:19;;;;;;;;;;;8.00;99.90;;;;;;2066946;28;19945;-75
2024/03/29 05:40:25;;;;;;;;;;;8.00;99.90;;;;;;2067386;28;19979;-77
2024/03/29 05:41:25;;;;;;;;;;;8.00;99.90;;;;;;2076433;28;20419;-76
2024/03/29 05:42:26;;;;;;;;;;;8.00;99.90;;;;;;2067183;28;19921;-76
2024/03/29 05:43:27;;;;;;;;;;;8.00;99.90;;;;;;2059159;28;20423;-76
2024/03/29 05:44:27;;;;;;;;;;;8.00;99.90;;;;;;2059303;28;19921;-76
2024/03/29 05:45:29;;;;;;;;;;;8.00;99.90;;;;;;2067402;28;19920;-76
2024/03/29 05:46:29;;;;;;;;;;;8.00;99.90;;;;;;2067096;28;19917;-76
2024/03/29 05:47:30;;;;;;;;;;;8.00;99.90;;;;;;2058592;28;19914;-76
2024/03/29 05:48:30;;;;;;;;;;;8.00;99.90;;;;;;2063889;28;20319;-76
2024/03/29 05:49:31;;;;;;;;;;;8.00;99.90;;;;;;2075518;28;20188;-76
2024/03/29 05:50:33;;;;;;;;;;;8.00;99.90;;;;;;2067185;28;20252;-77
2024/03/29 05:51:34;;;;;;;;;;;8.00;99.90;;;;;;2067050;28;19922;-76
2024/03/29 05:52:34;;;;;;;;;;;8.00;99.90;;;;;;2067205;28;20486;-77
2024/03/29 05:53:34;;;;;;;;;;;8.00;99.90;;;;;;2058862;28;19918;-77
2024/03/29 05:54:35;;;;;;;;;;;8.00;99.90;;;;;;2060923;28;20066;-74
2024/03/29 05:55:36;;;;;;;;;;;8.00;99.90;;;;;;2076071;28;20326;-76
2024/03/29 05:56:36;;;;;;;;;;;8.00;99.90;;;;;;2075762;28;19920;-76
2024/03/29 05:57:41;;;;;;;;;;;8.00;99.90;;;;;;2076336;28;19913;-74
2024/03/29 05:58:42;;;;;;;;;;;8.00;99.90;;;;;;2075956;28;19913;-77
2024/03/29 05:59:42;;;;;;;;;;;8.00;99.90;;;;;;2075930;28;19913;-78
2024/03/29 06:00:43;;;;;;;;;;;8.00;99.90;;;;;;2067292;28;19992;-77
2024/03/29 06:01:43;;;;;;;;;;;8.00;99.90;;;;;;2067467;28;19913;-76
2024/03/29 06:02:48;;;;;;;;;;;8.00;99.90;;;;;;2067055;28;20380;-75
2024/03/29 06:03:52;;;;;;;;;;;8.00;99.90;;;;;;2060443;28;20008;-77